sensor_id;sensor_type;location;lat;lon;timestamp;P1;durP1;ratioP1;P2;durP2;ratioP2
66112;SDS011;52893;52.870;5.822;2023-04-01T00:00:45;7.53;;;4.60;;
66112;SDS011;52893;52.870;5.822;2023-04-01T00:03:13;6.43;;;4.38;;
66112;SDS011;52893;52.870;5.822;2023-04-01T00:05:41;10.90;;;5.03;;
66112;SDS011;52893;52.870;5.822;2023-04-01T00:08:08;7.55;;;4.10;;
66112;SDS011;52893;52.870;5.822;2023-04-01T00:10:35;9.23;;;4.20;;
66112;SDS011;52893;52.870;5.822;2023-04-01T00:13:02;8.82;;;3.80;;
66112;SDS011;52893;52.870;5.822;2023-04-01T00:15:30;5.88;;;3.97;;
66112;SDS011;52893;52.870;5.822;2023-04-01T00:17:57;7.43;;;3.38;;
66112;SDS011;52893;52.870;5.822;2023-04-01T00:20:26;7.88;;;3.70;;
66112;SDS011;52893;52.870;5.822;2023-04-01T00:22:54;6.55;;;3.25;;
66112;SDS011;52893;52.870;5.822;2023-04-01T00:25:21;6.38;;;3.55;;
66112;SDS011;52893;52.870;5.822;2023-04-01T00:27:49;5.70;;;3.25;;
66112;SDS011;52893;52.870;5.822;2023-04-01T00:30:16;4.15;;;3.17;;
66112;SDS011;52893;52.870;5.822;2023-04-01T00:32:44;6.30;;;3.42;;
66112;SDS011;52893;52.870;5.822;2023-04-01T00:35:11;6.97;;;3.20;;
66112;SDS011;52893;52.870;5.822;2023-04-01T00:37:40;5.53;;;3.20;;
66112;SDS011;52893;52.870;5.822;2023-04-01T00:40:10;3.25;;;2.70;;
66112;SDS011;52893;52.870;5.822;2023-04-01T00:42:50;3.60;;;2.80;;
66112;SDS011;52893;52.870;5.822;2023-04-01T00:45:25;5.28;;;3.03;;
66112;SDS011;52893;52.870;5.822;2023-04-01T00:47:56;4.00;;;2.72;;
66112;SDS011;52893;52.870;5.822;2023-04-01T00:50:25;4.15;;;3.00;;
66112;SDS011;52893;52.870;5.822;2023-04-01T00:52:57;3.95;;;3.22;;
66112;SDS011;52893;52.870;5.822;2023-04-01T00:55:24;4.65;;;3.28;;
66112;SDS011;52893;52.870;5.822;2023-04-01T00:57:55;5.22;;;3.25;;
66112;SDS011;52893;52.870;5.822;2023-04-01T01:00:25;4.18;;;3.33;;
66112;SDS011;52893;52.870;5.822;2023-04-01T01:02:52;5.38;;;3.90;;
66112;SDS011;52893;52.870;5.822;2023-04-01T01:05:21;6.13;;;3.47;;
66112;SDS011;52893;52.870;5.822;2023-04-01T01:07:58;7.38;;;4.60;;
66112;SDS011;52893;52.870;5.822;2023-04-01T01:10:30;8.13;;;5.15;;
66112;SDS011;52893;52.870;5.822;2023-04-01T01:13:02;9.43;;;5.43;;
66112;SDS011;52893;52.870;5.822;2023-04-01T01:15:36;7.72;;;5.28;;
66112;SDS011;52893;52.870;5.822;2023-04-01T01:18:11;13.75;;;6.82;;
66112;SDS011;52893;52.870;5.822;2023-04-01T01:20:53;11.38;;;6.05;;
66112;SDS011;52893;52.870;5.822;2023-04-01T01:26:48;13.15;;;6.70;;
66112;SDS011;52893;52.870;5.822;2023-04-01T01:35:53;11.55;;;6.20;;
66112;SDS011;52893;52.870;5.822;2023-04-01T01:38:23;14.50;;;6.53;;
66112;SDS011;52893;52.870;5.822;2023-04-01T01:41:01;12.02;;;6.55;;
66112;SDS011;52893;52.870;5.822;2023-04-01T01:43:33;12.93;;;6.07;;
66112;SDS011;52893;52.870;5.822;2023-04-01T01:46:05;12.40;;;6.60;;
66112;SDS011;52893;52.870;5.822;2023-04-01T01:48:36;11.67;;;6.23;;
66112;SDS011;52893;52.870;5.822;2023-04-01T01:51:06;13.73;;;6.40;;
66112;SDS011;52893;52.870;5.822;2023-04-01T01:53:33;11.13;;;6.88;;
66112;SDS011;52893;52.870;5.822;2023-04-01T01:56:01;13.70;;;6.00;;
66112;SDS011;52893;52.870;5.822;2023-04-01T01:58:33;10.87;;;6.20;;
66112;SDS011;52893;52.870;5.822;2023-04-01T02:01:08;10.50;;;6.07;;
66112;SDS011;52893;52.870;5.822;2023-04-01T02:03:40;12.70;;;6.77;;
66112;SDS011;52893;52.870;5.822;2023-04-01T02:06:10;10.13;;;5.68;;
66112;SDS011;52893;52.870;5.822;2023-04-01T02:08:42;10.93;;;6.30;;
66112;SDS011;52893;52.870;5.822;2023-04-01T02:11:12;5.63;;;3.30;;
66112;SDS011;52893;52.870;5.822;2023-04-01T02:13:45;12.75;;;6.40;;
66112;SDS011;52893;52.870;5.822;2023-04-01T02:18:48;11.57;;;6.30;;
66112;SDS011;52893;52.870;5.822;2023-04-01T02:21:22;13.50;;;6.35;;
66112;SDS011;52893;52.870;5.822;2023-04-01T02:23:53;12.85;;;6.45;;
66112;SDS011;52893;52.870;5.822;2023-04-01T02:26:21;11.38;;;5.93;;
66112;SDS011;52893;52.870;5.822;2023-04-01T02:28:53;12.65;;;6.30;;
66112;SDS011;52893;52.870;5.822;2023-04-01T02:31:21;12.05;;;6.13;;
66112;SDS011;52893;52.870;5.822;2023-04-01T02:33:50;14.98;;;6.50;;
66112;SDS011;52893;52.870;5.822;2023-04-01T02:36:18;17.58;;;6.78;;
66112;SDS011;52893;52.870;5.822;2023-04-01T02:38:47;12.52;;;6.22;;
66112;SDS011;52893;52.870;5.822;2023-04-01T02:41:16;13.90;;;6.97;;
66112;SDS011;52893;52.870;5.822;2023-04-01T02:43:43;11.05;;;6.03;;
66112;SDS011;52893;52.870;5.822;2023-04-01T02:46:12;14.30;;;6.38;;
66112;SDS011;52893;52.870;5.822;2023-04-01T02:48:39;11.18;;;6.28;;
66112;SDS011;52893;52.870;5.822;2023-04-01T02:51:07;11.20;;;5.88;;
66112;SDS011;52893;52.870;5.822;2023-04-01T02:53:35;12.07;;;6.15;;
66112;SDS011;52893;52.870;5.822;2023-04-01T02:56:04;10.13;;;5.90;;
66112;SDS011;52893;52.870;5.822;2023-04-01T02:58:31;9.82;;;5.53;;
66112;SDS011;52893;52.870;5.822;2023-04-01T03:00:59;11.93;;;5.57;;
66112;SDS011;52893;52.870;5.822;2023-04-01T03:03:26;12.45;;;6.25;;
66112;SDS011;52893;52.870;5.822;2023-04-01T03:05:53;13.23;;;6.05;;
66112;SDS011;52893;52.870;5.822;2023-04-01T03:08:21;11.90;;;5.55;;
66112;SDS011;52893;52.870;5.822;2023-04-01T03:10:49;12.60;;;5.75;;
66112;SDS011;52893;52.870;5.822;2023-04-01T03:13:17;15.90;;;5.80;;
66112;SDS011;52893;52.870;5.822;2023-04-01T03:15:44;10.63;;;5.45;;
66112;SDS011;52893;52.870;5.822;2023-04-01T03:18:12;11.43;;;5.55;;
66112;SDS011;52893;52.870;5.822;2023-04-01T03:20:39;12.05;;;6.05;;
66112;SDS011;52893;52.870;5.822;2023-04-01T03:23:06;5.10;;;2.85;;
66112;SDS011;52893;52.870;5.822;2023-04-01T03:25:34;8.38;;;4.88;;
66112;SDS011;52893;52.870;5.822;2023-04-01T03:28:01;10.00;;;4.50;;
66112;SDS011;52893;52.870;5.822;2023-04-01T03:30:30;9.63;;;4.72;;
66112;SDS011;52893;52.870;5.822;2023-04-01T03:32:58;6.47;;;3.80;;
66112;SDS011;52893;52.870;5.822;2023-04-01T03:35:25;9.10;;;3.83;;
66112;SDS011;52893;52.870;5.822;2023-04-01T03:37:53;6.65;;;3.55;;
66112;SDS011;52893;52.870;5.822;2023-04-01T03:40:20;5.82;;;2.90;;
66112;SDS011;52893;52.870;5.822;2023-04-01T03:42:49;1.90;;;1.45;;
66112;SDS011;52893;52.870;5.822;2023-04-01T03:45:17;2.20;;;1.73;;
66112;SDS011;52893;52.870;5.822;2023-04-01T03:47:46;2.55;;;1.77;;
66112;SDS011;52893;52.870;5.822;2023-04-01T03:50:14;2.45;;;1.65;;
66112;SDS011;52893;52.870;5.822;2023-04-01T03:52:41;1.80;;;1.70;;
66112;SDS011;52893;52.870;5.822;2023-04-01T03:55:08;1.80;;;1.35;;
66112;SDS011;52893;52.870;5.822;2023-04-01T03:57:38;2.60;;;1.50;;
66112;SDS011;52893;52.870;5.822;2023-04-01T04:00:15;1.60;;;1.45;;
66112;SDS011;52893;52.870;5.822;2023-04-01T04:02:44;1.42;;;1.33;;
66112;SDS011;52893;52.870;5.822;2023-04-01T04:05:19;0.90;;;0.82;;
66112;SDS011;52893;52.870;5.822;2023-04-01T04:07:46;2.03;;;1.05;;
66112;SDS011;52893;52.870;5.822;2023-04-01T04:10:14;1.88;;;1.30;;
66112;SDS011;52893;52.870;5.822;2023-04-01T04:12:41;1.63;;;1.40;;
66112;SDS011;52893;52.870;5.822;2023-04-01T04:15:09;1.73;;;1.20;;
66112;SDS011;52893;52.870;5.822;2023-04-01T04:17:37;1.92;;;1.65;;
66112;SDS011;52893;52.870;5.822;2023-04-01T04:20:06;2.75;;;1.80;;
66112;SDS011;52893;52.870;5.822;2023-04-01T04:22:34;2.60;;;1.63;;
66112;SDS011;52893;52.870;5.822;2023-04-01T04:25:04;2.33;;;1.65;;
66112;SDS011;52893;52.870;5.822;2023-04-01T04:27:33;3.25;;;2.03;;
66112;SDS011;52893;52.870;5.822;2023-04-01T04:30:07;2.92;;;2.05;;
66112;SDS011;52893;52.870;5.822;2023-04-01T04:32:36;5.93;;;2.50;;
66112;SDS011;52893;52.870;5.822;2023-04-01T04:35:05;3.10;;;1.90;;
66112;SDS011;52893;52.870;5.822;2023-04-01T04:37:34;5.43;;;2.72;;
66112;SDS011;52893;52.870;5.822;2023-04-01T04:40:01;7.47;;;2.83;;
66112;SDS011;52893;52.870;5.822;2023-04-01T04:42:30;7.18;;;3.20;;
66112;SDS011;52893;52.870;5.822;2023-04-01T04:45:03;5.90;;;2.67;;
66112;SDS011;52893;52.870;5.822;2023-04-01T04:47:31;7.07;;;3.38;;
66112;SDS011;52893;52.870;5.822;2023-04-01T04:49:59;5.63;;;2.75;;
66112;SDS011;52893;52.870;5.822;2023-04-01T04:52:28;6.13;;;2.83;;
66112;SDS011;52893;52.870;5.822;2023-04-01T04:54:55;5.30;;;2.42;;
66112;SDS011;52893;52.870;5.822;2023-04-01T04:57:22;5.15;;;2.20;;
66112;SDS011;52893;52.870;5.822;2023-04-01T04:59:54;4.88;;;2.75;;
66112;SDS011;52893;52.870;5.822;2023-04-01T05:02:44;5.22;;;3.03;;
66112;SDS011;52893;52.870;5.822;2023-04-01T05:05:11;4.07;;;2.20;;
66112;SDS011;52893;52.870;5.822;2023-04-01T05:07:40;6.03;;;2.38;;
66112;SDS011;52893;52.870;5.822;2023-04-01T05:10:08;6.25;;;3.38;;
66112;SDS011;52893;52.870;5.822;2023-04-01T05:12:35;7.55;;;3.30;;
66112;SDS011;52893;52.870;5.822;2023-04-01T05:15:06;7.15;;;3.33;;
66112;SDS011;52893;52.870;5.822;2023-04-01T05:17:35;3.40;;;1.60;;
66112;SDS011;52893;52.870;5.822;2023-04-01T05:20:04;5.68;;;2.80;;
66112;SDS011;52893;52.870;5.822;2023-04-01T05:22:32;8.15;;;3.03;;
66112;SDS011;52893;52.870;5.822;2023-04-01T05:25:01;5.95;;;2.50;;
66112;SDS011;52893;52.870;5.822;2023-04-01T05:27:29;6.22;;;2.60;;
66112;SDS011;52893;52.870;5.822;2023-04-01T05:29:56;6.88;;;2.40;;
66112;SDS011;52893;52.870;5.822;2023-04-01T05:32:42;8.85;;;2.65;;
66112;SDS011;52893;52.870;5.822;2023-04-01T05:35:11;9.23;;;3.10;;
66112;SDS011;52893;52.870;5.822;2023-04-01T05:37:38;8.32;;;3.35;;
66112;SDS011;52893;52.870;5.822;2023-04-01T05:40:08;13.32;;;3.63;;
66112;SDS011;52893;52.870;5.822;2023-04-01T05:42:36;9.05;;;4.20;;
66112;SDS011;52893;52.870;5.822;2023-04-01T05:45:03;10.95;;;4.80;;
66112;SDS011;52893;52.870;5.822;2023-04-01T05:47:52;17.50;;;6.28;;
66112;SDS011;52893;52.870;5.822;2023-04-01T05:50:19;19.63;;;7.68;;
66112;SDS011;52893;52.870;5.822;2023-04-01T05:52:46;21.20;;;8.75;;
66112;SDS011;52893;52.870;5.822;2023-04-01T05:55:15;23.98;;;9.02;;
66112;SDS011;52893;52.870;5.822;2023-04-01T05:57:44;26.45;;;9.13;;
66112;SDS011;52893;52.870;5.822;2023-04-01T06:00:12;21.75;;;9.27;;
66112;SDS011;52893;52.870;5.822;2023-04-01T06:02:40;27.00;;;9.32;;
66112;SDS011;52893;52.870;5.822;2023-04-01T06:05:13;29.08;;;9.73;;
66112;SDS011;52893;52.870;5.822;2023-04-01T06:07:43;21.67;;;9.05;;
66112;SDS011;52893;52.870;5.822;2023-04-01T06:10:12;26.42;;;9.77;;
66112;SDS011;52893;52.870;5.822;2023-04-01T06:12:47;19.05;;;8.55;;
66112;SDS011;52893;52.870;5.822;2023-04-01T06:15:21;21.00;;;9.48;;
66112;SDS011;52893;52.870;5.822;2023-04-01T06:17:58;25.30;;;9.02;;
66112;SDS011;52893;52.870;5.822;2023-04-01T06:20:37;23.73;;;8.52;;
66112;SDS011;52893;52.870;5.822;2023-04-01T06:23:24;21.58;;;9.43;;
66112;SDS011;52893;52.870;5.822;2023-04-01T06:26:07;18.30;;;7.90;;
66112;SDS011;52893;52.870;5.822;2023-04-01T06:31:56;23.25;;;9.68;;
66112;SDS011;52893;52.870;5.822;2023-04-01T06:43:34;19.15;;;8.68;;
66112;SDS011;52893;52.870;5.822;2023-04-01T06:46:21;22.08;;;8.95;;
66112;SDS011;52893;52.870;5.822;2023-04-01T06:49:20;22.15;;;8.75;;
66112;SDS011;52893;52.870;5.822;2023-04-01T06:52:35;18.80;;;8.60;;
66112;SDS011;52893;52.870;5.822;2023-04-01T06:55:35;21.33;;;8.85;;
66112;SDS011;52893;52.870;5.822;2023-04-01T06:58:29;20.10;;;8.77;;
66112;SDS011;52893;52.870;5.822;2023-04-01T07:01:02;20.10;;;8.95;;
66112;SDS011;52893;52.870;5.822;2023-04-01T07:03:34;21.13;;;8.38;;
66112;SDS011;52893;52.870;5.822;2023-04-01T07:06:08;18.98;;;7.88;;
66112;SDS011;52893;52.870;5.822;2023-04-01T07:08:48;17.63;;;8.70;;
66112;SDS011;52893;52.870;5.822;2023-04-01T07:11:21;19.02;;;8.50;;
66112;SDS011;52893;52.870;5.822;2023-04-01T07:14:16;20.30;;;8.73;;
66112;SDS011;52893;52.870;5.822;2023-04-01T07:16:49;16.60;;;8.73;;
66112;SDS011;52893;52.870;5.822;2023-04-01T07:19:24;15.80;;;8.10;;
66112;SDS011;52893;52.870;5.822;2023-04-01T07:22:05;17.52;;;7.25;;
66112;SDS011;52893;52.870;5.822;2023-04-01T07:25:01;19.98;;;9.30;;
66112;SDS011;52893;52.870;5.822;2023-04-01T07:27:32;16.88;;;8.35;;
66112;SDS011;52893;52.870;5.822;2023-04-01T07:29:59;18.55;;;7.93;;
66112;SDS011;52893;52.870;5.822;2023-04-01T07:32:31;18.90;;;8.32;;
66112;SDS011;52893;52.870;5.822;2023-04-01T07:35:13;16.73;;;7.68;;
66112;SDS011;52893;52.870;5.822;2023-04-01T07:37:52;18.17;;;7.60;;
66112;SDS011;52893;52.870;5.822;2023-04-01T07:40:32;16.08;;;7.00;;
66112;SDS011;52893;52.870;5.822;2023-04-01T07:43:11;17.70;;;7.40;;
66112;SDS011;52893;52.870;5.822;2023-04-01T07:46:02;12.38;;;5.80;;
66112;SDS011;52893;52.870;5.822;2023-04-01T07:48:41;4.38;;;2.88;;
66112;SDS011;52893;52.870;5.822;2023-04-01T07:51:17;6.78;;;4.07;;
66112;SDS011;52893;52.870;5.822;2023-04-01T07:53:52;5.80;;;3.00;;
66112;SDS011;52893;52.870;5.822;2023-04-01T07:56:28;3.95;;;2.25;;
66112;SDS011;52893;52.870;5.822;2023-04-01T07:59:02;2.45;;;1.88;;
66112;SDS011;52893;52.870;5.822;2023-04-01T08:01:53;3.80;;;2.10;;
66112;SDS011;52893;52.870;5.822;2023-04-01T08:04:34;3.05;;;1.95;;
66112;SDS011;52893;52.870;5.822;2023-04-01T08:07:15;5.70;;;2.47;;
66112;SDS011;52893;52.870;5.822;2023-04-01T08:10:04;5.68;;;3.53;;
66112;SDS011;52893;52.870;5.822;2023-04-01T08:13:06;9.00;;;4.40;;
66112;SDS011;52893;52.870;5.822;2023-04-01T08:16:14;6.38;;;3.67;;
66112;SDS011;52893;52.870;5.822;2023-04-01T08:18:53;12.73;;;5.75;;
66112;SDS011;52893;52.870;5.822;2023-04-01T08:21:28;9.00;;;4.95;;
66112;SDS011;52893;52.870;5.822;2023-04-01T08:24:07;10.77;;;6.43;;
66112;SDS011;52893;52.870;5.822;2023-04-01T08:26:44;10.10;;;5.85;;
66112;SDS011;52893;52.870;5.822;2023-04-01T08:29:16;10.35;;;5.90;;
66112;SDS011;52893;52.870;5.822;2023-04-01T08:31:48;12.27;;;6.10;;
66112;SDS011;52893;52.870;5.822;2023-04-01T08:34:23;10.15;;;5.97;;
66112;SDS011;52893;52.870;5.822;2023-04-01T08:36:57;12.00;;;6.32;;
66112;SDS011;52893;52.870;5.822;2023-04-01T08:39:31;11.80;;;6.78;;
66112;SDS011;52893;52.870;5.822;2023-04-01T08:42:14;14.57;;;7.35;;
66112;SDS011;52893;52.870;5.822;2023-04-01T08:45:19;16.80;;;8.43;;
66112;SDS011;52893;52.870;5.822;2023-04-01T08:51:36;14.20;;;8.82;;
66112;SDS011;52893;52.870;5.822;2023-04-01T08:54:37;10.40;;;6.80;;
66112;SDS011;52893;52.870;5.822;2023-04-01T08:57:20;14.65;;;9.07;;
66112;SDS011;52893;52.870;5.822;2023-04-01T09:00:19;13.75;;;8.35;;
66112;SDS011;52893;52.870;5.822;2023-04-01T09:03:15;15.43;;;8.55;;
66112;SDS011;52893;52.870;5.822;2023-04-01T09:06:12;14.13;;;8.20;;
66112;SDS011;52893;52.870;5.822;2023-04-01T09:09:09;15.48;;;9.25;;
66112;SDS011;52893;52.870;5.822;2023-04-01T09:12:01;14.05;;;9.30;;
66112;SDS011;52893;52.870;5.822;2023-04-01T09:14:48;16.35;;;8.75;;
66112;SDS011;52893;52.870;5.822;2023-04-01T09:17:45;16.17;;;9.23;;
66112;SDS011;52893;52.870;5.822;2023-04-01T09:20:26;14.27;;;8.57;;
66112;SDS011;52893;52.870;5.822;2023-04-01T09:23:22;12.80;;;8.23;;
66112;SDS011;52893;52.870;5.822;2023-04-01T09:26:13;17.33;;;8.45;;
66112;SDS011;52893;52.870;5.822;2023-04-01T09:29:18;18.08;;;9.35;;
66112;SDS011;52893;52.870;5.822;2023-04-01T09:32:01;14.02;;;8.38;;
66112;SDS011;52893;52.870;5.822;2023-04-01T09:34:51;10.73;;;7.03;;
66112;SDS011;52893;52.870;5.822;2023-04-01T09:37:33;13.63;;;8.05;;
66112;SDS011;52893;52.870;5.822;2023-04-01T09:40:15;7.65;;;5.53;;
66112;SDS011;52893;52.870;5.822;2023-04-01T09:42:52;13.32;;;7.70;;
66112;SDS011;52893;52.870;5.822;2023-04-01T09:45:42;10.85;;;6.35;;
66112;SDS011;52893;52.870;5.822;2023-04-01T09:48:21;11.35;;;7.68;;
66112;SDS011;52893;52.870;5.822;2023-04-01T09:51:03;15.10;;;9.93;;
66112;SDS011;52893;52.870;5.822;2023-04-01T09:53:58;13.13;;;8.38;;
66112;SDS011;52893;52.870;5.822;2023-04-01T09:56:43;16.83;;;9.07;;
66112;SDS011;52893;52.870;5.822;2023-04-01T09:59:46;14.23;;;9.63;;
66112;SDS011;52893;52.870;5.822;2023-04-01T10:06:26;16.27;;;9.43;;
66112;SDS011;52893;52.870;5.822;2023-04-01T10:12:34;16.90;;;9.98;;
66112;SDS011;52893;52.870;5.822;2023-04-01T10:18:48;22.58;;;10.98;;
66112;SDS011;52893;52.870;5.822;2023-04-01T10:21:39;20.48;;;9.82;;
66112;SDS011;52893;52.870;5.822;2023-04-01T10:31:09;16.92;;;8.73;;
66112;SDS011;52893;52.870;5.822;2023-04-01T10:33:54;19.75;;;10.38;;
66112;SDS011;52893;52.870;5.822;2023-04-01T10:36:48;24.00;;;10.65;;
66112;SDS011;52893;52.870;5.822;2023-04-01T10:39:38;13.75;;;6.75;;
66112;SDS011;52893;52.870;5.822;2023-04-01T10:43:09;12.65;;;7.05;;
66112;SDS011;52893;52.870;5.822;2023-04-01T10:49:12;18.60;;;9.18;;
66112;SDS011;52893;52.870;5.822;2023-04-01T10:55:18;12.18;;;7.57;;
66112;SDS011;52893;52.870;5.822;2023-04-01T10:58:27;11.35;;;7.53;;
66112;SDS011;52893;52.870;5.822;2023-04-01T11:05:16;8.05;;;5.43;;
66112;SDS011;52893;52.870;5.822;2023-04-01T11:08:31;8.40;;;5.22;;
66112;SDS011;52893;52.870;5.822;2023-04-01T11:17:34;6.55;;;5.03;;
66112;SDS011;52893;52.870;5.822;2023-04-01T11:20:25;8.23;;;5.07;;
66112;SDS011;52893;52.870;5.822;2023-04-01T11:23:05;7.45;;;4.63;;
66112;SDS011;52893;52.870;5.822;2023-04-01T11:25:54;5.85;;;3.75;;
66112;SDS011;52893;52.870;5.822;2023-04-01T11:32:20;6.05;;;4.30;;
66112;SDS011;52893;52.870;5.822;2023-04-01T11:34:59;6.40;;;4.10;;
66112;SDS011;52893;52.870;5.822;2023-04-01T11:37:42;5.70;;;4.20;;
66112;SDS011;52893;52.870;5.822;2023-04-01T11:40:41;7.13;;;3.80;;
66112;SDS011;52893;52.870;5.822;2023-04-01T11:43:30;8.00;;;4.13;;
66112;SDS011;52893;52.870;5.822;2023-04-01T11:46:30;3.85;;;2.78;;
66112;SDS011;52893;52.870;5.822;2023-04-01T11:49:06;8.95;;;4.70;;
66112;SDS011;52893;52.870;5.822;2023-04-01T11:52:11;4.80;;;3.22;;
66112;SDS011;52893;52.870;5.822;2023-04-01T11:54:54;7.07;;;3.85;;
66112;SDS011;52893;52.870;5.822;2023-04-01T11:57:43;7.18;;;4.28;;
66112;SDS011;52893;52.870;5.822;2023-04-01T12:00:26;6.38;;;4.32;;
66112;SDS011;52893;52.870;5.822;2023-04-01T12:03:10;7.78;;;4.57;;
66112;SDS011;52893;52.870;5.822;2023-04-01T12:05:54;8.43;;;5.13;;
66112;SDS011;52893;52.870;5.822;2023-04-01T12:08:31;10.00;;;5.20;;
66112;SDS011;52893;52.870;5.822;2023-04-01T12:11:12;8.23;;;5.18;;
66112;SDS011;52893;52.870;5.822;2023-04-01T12:13:45;6.85;;;4.60;;
66112;SDS011;52893;52.870;5.822;2023-04-01T12:16:32;8.15;;;4.63;;
66112;SDS011;52893;52.870;5.822;2023-04-01T12:19:10;4.35;;;3.63;;
66112;SDS011;52893;52.870;5.822;2023-04-01T12:21:43;4.50;;;3.40;;
66112;SDS011;52893;52.870;5.822;2023-04-01T12:27:10;5.80;;;4.45;;
66112;SDS011;52893;52.870;5.822;2023-04-01T12:29:54;6.90;;;4.60;;
66112;SDS011;52893;52.870;5.822;2023-04-01T12:32:56;4.95;;;3.67;;
66112;SDS011;52893;52.870;5.822;2023-04-01T12:35:37;5.82;;;4.53;;
66112;SDS011;52893;52.870;5.822;2023-04-01T12:38:21;4.97;;;3.92;;
66112;SDS011;52893;52.870;5.822;2023-04-01T12:41:03;4.38;;;3.88;;
66112;SDS011;52893;52.870;5.822;2023-04-01T12:43:57;5.35;;;3.83;;
66112;SDS011;52893;52.870;5.822;2023-04-01T12:46:32;4.32;;;3.42;;
66112;SDS011;52893;52.870;5.822;2023-04-01T12:49:17;6.07;;;4.05;;
66112;SDS011;52893;52.870;5.822;2023-04-01T12:52:00;3.42;;;2.97;;
66112;SDS011;52893;52.870;5.822;2023-04-01T12:57:32;4.15;;;3.42;;
66112;SDS011;52893;52.870;5.822;2023-04-01T13:00:38;3.30;;;3.00;;
66112;SDS011;52893;52.870;5.822;2023-04-01T13:03:31;3.33;;;2.80;;
66112;SDS011;52893;52.870;5.822;2023-04-01T13:06:18;5.20;;;3.42;;
66112;SDS011;52893;52.870;5.822;2023-04-01T13:08:53;3.50;;;3.20;;
66112;SDS011;52893;52.870;5.822;2023-04-01T13:11:31;4.75;;;3.10;;
66112;SDS011;52893;52.870;5.822;2023-04-01T13:14:19;2.80;;;2.40;;
66112;SDS011;52893;52.870;5.822;2023-04-01T13:17:02;4.45;;;3.22;;
66112;SDS011;52893;52.870;5.822;2023-04-01T13:19:38;3.78;;;2.58;;
66112;SDS011;52893;52.870;5.822;2023-04-01T13:22:15;5.43;;;2.45;;
66112;SDS011;52893;52.870;5.822;2023-04-01T13:24:49;2.78;;;2.45;;
66112;SDS011;52893;52.870;5.822;2023-04-01T13:27:25;3.50;;;2.70;;
66112;SDS011;52893;52.870;5.822;2023-04-01T13:32:32;3.35;;;2.30;;
66112;SDS011;52893;52.870;5.822;2023-04-01T13:35:08;3.28;;;1.95;;
66112;SDS011;52893;52.870;5.822;2023-04-01T13:37:49;3.72;;;2.55;;
66112;SDS011;52893;52.870;5.822;2023-04-01T13:40:28;2.50;;;2.22;;
66112;SDS011;52893;52.870;5.822;2023-04-01T13:43:09;3.00;;;2.10;;
66112;SDS011;52893;52.870;5.822;2023-04-01T13:46:04;4.45;;;2.28;;
66112;SDS011;52893;52.870;5.822;2023-04-01T13:48:49;3.40;;;2.75;;
66112;SDS011;52893;52.870;5.822;2023-04-01T13:54:47;5.18;;;2.50;;
66112;SDS011;52893;52.870;5.822;2023-04-01T13:57:52;2.70;;;2.50;;
66112;SDS011;52893;52.870;5.822;2023-04-01T14:01:00;2.25;;;1.88;;
66112;SDS011;52893;52.870;5.822;2023-04-01T14:03:44;3.95;;;2.30;;
66112;SDS011;52893;52.870;5.822;2023-04-01T14:06:29;2.08;;;1.85;;
66112;SDS011;52893;52.870;5.822;2023-04-01T14:09:08;6.72;;;2.22;;
66112;SDS011;52893;52.870;5.822;2023-04-01T14:11:50;2.20;;;2.00;;
66112;SDS011;52893;52.870;5.822;2023-04-01T14:14:26;3.53;;;2.17;;
66112;SDS011;52893;52.870;5.822;2023-04-01T14:17:06;2.10;;;1.98;;
66112;SDS011;52893;52.870;5.822;2023-04-01T14:19:53;5.00;;;1.65;;
66112;SDS011;52893;52.870;5.822;2023-04-01T14:22:36;1.92;;;1.67;;
66112;SDS011;52893;52.870;5.822;2023-04-01T14:25:16;1.98;;;1.85;;
66112;SDS011;52893;52.870;5.822;2023-04-01T14:27:55;2.08;;;1.67;;
66112;SDS011;52893;52.870;5.822;2023-04-01T14:30:35;1.92;;;1.73;;
66112;SDS011;52893;52.870;5.822;2023-04-01T14:33:13;3.53;;;2.65;;
66112;SDS011;52893;52.870;5.822;2023-04-01T14:36:00;5.03;;;2.40;;
66112;SDS011;52893;52.870;5.822;2023-04-01T14:38:42;2.50;;;2.30;;
66112;SDS011;52893;52.870;5.822;2023-04-01T14:41:19;2.85;;;2.28;;
66112;SDS011;52893;52.870;5.822;2023-04-01T14:43:56;2.80;;;2.00;;
66112;SDS011;52893;52.870;5.822;2023-04-01T14:46:47;1.85;;;1.75;;
66112;SDS011;52893;52.870;5.822;2023-04-01T14:49:44;2.05;;;1.85;;
66112;SDS011;52893;52.870;5.822;2023-04-01T14:52:16;2.22;;;1.90;;
66112;SDS011;52893;52.870;5.822;2023-04-01T14:54:51;1.92;;;1.83;;
66112;SDS011;52893;52.870;5.822;2023-04-01T14:57:22;1.67;;;1.58;;
66112;SDS011;52893;52.870;5.822;2023-04-01T14:59:51;2.15;;;1.95;;
66112;SDS011;52893;52.870;5.822;2023-04-01T15:05:15;2.60;;;2.00;;
66112;SDS011;52893;52.870;5.822;2023-04-01T15:07:56;2.78;;;2.30;;
66112;SDS011;52893;52.870;5.822;2023-04-01T15:16:58;2.30;;;2.03;;
66112;SDS011;52893;52.870;5.822;2023-04-01T15:19:38;3.20;;;2.00;;
66112;SDS011;52893;52.870;5.822;2023-04-01T15:22:20;1.70;;;1.60;;
66112;SDS011;52893;52.870;5.822;2023-04-01T15:25:16;4.50;;;2.33;;
66112;SDS011;52893;52.870;5.822;2023-04-01T15:30:37;2.25;;;2.05;;
66112;SDS011;52893;52.870;5.822;2023-04-01T15:33:17;9.88;;;2.50;;
66112;SDS011;52893;52.870;5.822;2023-04-01T15:35:51;1.90;;;1.80;;
66112;SDS011;52893;52.870;5.822;2023-04-01T15:38:27;2.50;;;1.58;;
66112;SDS011;52893;52.870;5.822;2023-04-01T15:41:05;2.28;;;1.48;;
66112;SDS011;52893;52.870;5.822;2023-04-01T15:43:40;2.90;;;1.63;;
66112;SDS011;52893;52.870;5.822;2023-04-01T15:46:14;2.72;;;2.17;;
66112;SDS011;52893;52.870;5.822;2023-04-01T15:48:55;3.38;;;1.90;;
66112;SDS011;52893;52.870;5.822;2023-04-01T15:51:37;4.75;;;2.00;;
66112;SDS011;52893;52.870;5.822;2023-04-01T15:57:30;2.75;;;2.20;;
66112;SDS011;52893;52.870;5.822;2023-04-01T16:00:09;4.05;;;2.10;;
66112;SDS011;52893;52.870;5.822;2023-04-01T16:02:48;3.75;;;1.70;;
66112;SDS011;52893;52.870;5.822;2023-04-01T16:05:25;3.05;;;2.13;;
66112;SDS011;52893;52.870;5.822;2023-04-01T16:08:09;3.72;;;1.60;;
66112;SDS011;52893;52.870;5.822;2023-04-01T16:13:48;1.65;;;1.50;;
66112;SDS011;52893;52.870;5.822;2023-04-01T16:16:27;1.30;;;1.20;;
66112;SDS011;52893;52.870;5.822;2023-04-01T16:19:12;1.50;;;1.40;;
66112;SDS011;52893;52.870;5.822;2023-04-01T16:21:57;1.33;;;1.23;;
66112;SDS011;52893;52.870;5.822;2023-04-01T16:24:30;1.50;;;1.40;;
66112;SDS011;52893;52.870;5.822;2023-04-01T16:29:32;1.60;;;1.50;;
66112;SDS011;52893;52.870;5.822;2023-04-01T16:32:12;2.13;;;1.70;;
66112;SDS011;52893;52.870;5.822;2023-04-01T16:35:01;2.75;;;1.60;;
66112;SDS011;52893;52.870;5.822;2023-04-01T16:37:44;2.47;;;1.92;;
66112;SDS011;52893;52.870;5.822;2023-04-01T16:40:16;1.50;;;1.40;;
66112;SDS011;52893;52.870;5.822;2023-04-01T16:42:52;3.40;;;1.90;;
66112;SDS011;52893;52.870;5.822;2023-04-01T16:45:26;2.38;;;1.77;;
66112;SDS011;52893;52.870;5.822;2023-04-01T16:48:01;3.65;;;1.65;;
66112;SDS011;52893;52.870;5.822;2023-04-01T16:50:42;3.33;;;1.80;;
66112;SDS011;52893;52.870;5.822;2023-04-01T16:53:17;4.10;;;1.92;;
66112;SDS011;52893;52.870;5.822;2023-04-01T16:55:48;4.15;;;2.22;;
66112;SDS011;52893;52.870;5.822;2023-04-01T16:58:20;3.90;;;1.70;;
66112;SDS011;52893;52.870;5.822;2023-04-01T17:00:55;2.33;;;2.13;;
66112;SDS011;52893;52.870;5.822;2023-04-01T17:03:27;2.72;;;2.10;;
66112;SDS011;52893;52.870;5.822;2023-04-01T17:06:02;4.30;;;2.58;;
66112;SDS011;52893;52.870;5.822;2023-04-01T17:08:45;4.50;;;2.63;;
66112;SDS011;52893;52.870;5.822;2023-04-01T17:11:20;4.05;;;2.55;;
66112;SDS011;52893;52.870;5.822;2023-04-01T17:13:55;6.38;;;2.45;;
66112;SDS011;52893;52.870;5.822;2023-04-01T17:16:44;3.15;;;2.35;;
66112;SDS011;52893;52.870;5.822;2023-04-01T17:19:23;4.20;;;2.80;;
66112;SDS011;52893;52.870;5.822;2023-04-01T17:22:12;4.38;;;3.15;;
66112;SDS011;52893;52.870;5.822;2023-04-01T17:24:55;3.47;;;2.55;;